LTCG Airport Information

Runway Information
Runway 11 Length 8661 ft width 148 ft
Elevation 104 ft Threshold 0 ft Heading 112
Runway 29 Length 8661 ft Width 148 ft
Elevation 95 ft Threshold 0 ft Heading 292
Airport Frequencies
Type APP Name APP Frequency 120.1 MHZ
Type GND Name GND Frequency 121.9 MHZ
Type TWR Name TWR Frequency 120.1 MHZ
Airport Navaids
Type NDB Name Trabzon Frequency 392 KHZ
Type VOR-DME Name Trabzon Frequency 114900 KHZ
Type NDB Name Trabzon Frequency 371 KHZ
Airport Weather Information & NOTAM
ADDS - METARS form results

(0239 UTC 07 July 2020)
Data provider http://aviationweather.gov/metar/data/
 
METAR text: LTCG 070220Z 22003KT 9999 SCT035 25/22 Q1002 NOSIG
Conditions at: LTCG (TRABZON , TR) observed 0220 UTC 07 July 2020
Temperature: 25.0°C (77°F)
Dewpoint: 22.0°C (72°F) [RH = 83%]
Pressure (altimeter): 29.59 inches Hg (1002.0 mb)
Winds: from the SW (220 degrees) at 3 MPH (3 knots; 1.5 m/s)
Visibility: 6 or more miles (10+ km)
Ceiling: at least 12,000 feet AGL
Clouds: scattered clouds at 3500 feet AGL
Weather: no significant weather observed at this time

METAR text: LTCG 070150Z 23002KT 9999 SCT035 25/22 Q1002 NOSIG RMK RWY29 00000KT
Conditions at: LTCG (TRABZON , TR) observed 0150 UTC 07 July 2020
Temperature: 25.0°C (77°F)
Dewpoint: 22.0°C (72°F) [RH = 83%]
Pressure (altimeter): 29.59 inches Hg (1002.0 mb)
Winds: from the SW (230 degrees) at 2 MPH (2 knots; 1.0 m/s)
Visibility: 6 or more miles (10+ km)
Ceiling: at least 12,000 feet AGL
Clouds: scattered clouds at 3500 feet AGL
Weather: no significant weather observed at this time

Forecast for: LTCG (TRABZON , TR)
Text: TAF LTCG 062240Z 0700/0724 VRB02KT 9999 SCT035
Forecast period: 0000 UTC 07 July 2020 to 0000 UTC 08 July 2020
Forecast type: FROM: standard forecast or significant change
Winds: variable direction winds at 2 MPH (2 knots; 1.0 m/s)
Visibility: 6 or more miles 10+ km)
Ceiling: at least 12,000 feet AGL
Clouds: scattered clouds at 3500 feet AGL
Weather: no significant weather forecast for this period